createdAt,value
2023-03-03T00:02:18.634Z,57.90
2023-03-03T00:04:46.537Z,58.00
2023-03-03T00:07:15.478Z,59.90
2023-03-03T00:09:43.320Z,61.80
2023-03-03T00:12:24.919Z,61.70
2023-03-03T00:14:53.105Z,61.90
2023-03-03T00:17:24.778Z,63.10
2023-03-03T00:19:53.667Z,64.60
2023-03-03T00:22:30.626Z,65.80
2023-03-03T00:25:01.225Z,65.20
2023-03-03T00:27:32.372Z,64.80
2023-03-03T00:30:01.934Z,65.10
2023-03-03T00:32:39.534Z,65.70
2023-03-03T00:35:25.189Z,65.40
2023-03-03T00:37:57.585Z,64.30
2023-03-03T00:40:26.885Z,64.10
2023-03-03T00:42:58.740Z,64.00
2023-03-03T00:45:33.041Z,64.00
2023-03-03T00:48:17.704Z,64.10
2023-03-03T00:50:45.690Z,63.90
2023-03-03T00:53:17.176Z,63.30
2023-03-03T00:55:46.644Z,62.70
2023-03-03T00:58:16.231Z,62.90
2023-03-03T01:00:44.081Z,63.20
2023-03-03T01:03:15.456Z,62.60
2023-03-03T01:05:43.354Z,61.80
2023-03-03T01:08:11.606Z,64.10
2023-03-03T01:10:43.798Z,64.90
2023-03-03T01:13:12.311Z,65.00
2023-03-03T01:15:42.075Z,66.40
2023-03-03T01:18:11.254Z,66.10
2023-03-03T01:20:40.004Z,67.20
2023-03-03T01:23:08.464Z,68.10
2023-03-03T01:25:36.801Z,68.10
2023-03-03T01:28:05.160Z,69.00
2023-03-03T01:30:33.260Z,70.00
2023-03-03T01:33:02.498Z,68.80
2023-03-03T01:35:30.889Z,70.60
2023-03-03T01:37:59.520Z,71.70
2023-03-03T01:40:29.750Z,72.40
2023-03-03T01:42:57.954Z,72.20
2023-03-03T01:45:28.792Z,74.10
2023-03-03T01:48:05.278Z,75.00
2023-03-03T01:50:39.754Z,75.50
2023-03-03T01:53:14.595Z,75.50
2023-03-03T01:55:43.427Z,75.50
2023-03-03T01:58:14.825Z,76.00
2023-03-03T02:00:46.549Z,76.10
2023-03-03T02:03:15.785Z,76.20
2023-03-03T02:05:44.884Z,75.40
2023-03-03T02:08:16.932Z,76.00
2023-03-03T02:10:45.940Z,75.30
2023-03-03T02:13:13.945Z,75.50
2023-03-03T02:15:41.839Z,75.70
2023-03-03T02:18:14.352Z,76.10
2023-03-03T02:20:53.400Z,76.50
2023-03-03T02:23:26.773Z,76.60
2023-03-03T02:26:06.668Z,77.10
2023-03-03T02:28:36.934Z,77.00
2023-03-03T02:31:06.804Z,76.20
2023-03-03T02:33:34.735Z,74.80
2023-03-03T02:36:02.654Z,76.00
2023-03-03T02:38:36.664Z,77.20
2023-03-03T02:41:12.439Z,77.60
2023-03-03T02:43:47.677Z,77.40
2023-03-03T02:46:15.552Z,77.50
2023-03-03T02:48:43.429Z,77.60
2023-03-03T02:51:11.272Z,76.20
2023-03-03T02:53:39.176Z,76.50
2023-03-03T02:56:09.899Z,76.10
2023-03-03T02:58:38.382Z,76.10
2023-03-03T03:01:06.507Z,77.70
2023-03-03T03:03:34.454Z,79.00
2023-03-03T03:06:02.415Z,79.10
2023-03-03T03:08:30.350Z,78.60
2023-03-03T03:10:58.295Z,80.00
2023-03-03T03:13:27.977Z,79.10
2023-03-03T03:15:55.862Z,79.90
2023-03-03T03:18:23.702Z,79.90
2023-03-03T03:20:51.756Z,80.60
2023-03-03T03:23:21.860Z,79.80
2023-03-03T03:25:49.823Z,80.50
2023-03-03T03:28:19.349Z,80.90
2023-03-03T03:30:48.705Z,80.40
2023-03-03T03:33:16.584Z,80.50
2023-03-03T03:35:47.098Z,80.00
2023-03-03T03:38:15.755Z,80.60
2023-03-03T03:40:44.173Z,81.00
2023-03-03T03:43:12.088Z,81.10
2023-03-03T03:45:40.198Z,81.30
2023-03-03T03:48:09.506Z,81.10
2023-03-03T03:50:38.014Z,81.30
2023-03-03T03:53:06.459Z,81.60
2023-03-03T03:55:34.540Z,80.10
2023-03-03T03:58:02.390Z,78.90
2023-03-03T04:00:30.227Z,78.60
2023-03-03T04:02:58.208Z,77.20
2023-03-03T04:05:27.525Z,77.90
2023-03-03T04:07:55.377Z,77.40
2023-03-03T04:10:23.245Z,78.40
2023-03-03T04:12:51.141Z,79.30
2023-03-03T04:15:19.242Z,80.30
2023-03-03T04:17:47.403Z,80.70
2023-03-03T04:20:17.147Z,81.70
2023-03-03T04:22:46.457Z,82.40
2023-03-03T04:25:16.474Z,82.30
2023-03-03T04:27:45.099Z,82.50
2023-03-03T04:30:14.453Z,81.70
2023-03-03T04:32:42.765Z,79.20
2023-03-03T04:35:11.857Z,78.00
2023-03-03T04:37:40.349Z,77.70
2023-03-03T04:40:11.323Z,77.90
2023-03-03T04:42:39.226Z,79.10
2023-03-03T04:45:08.244Z,79.20
2023-03-03T04:47:36.342Z,79.80
2023-03-03T04:50:04.952Z,80.10
2023-03-03T04:52:32.846Z,79.40
2023-03-03T04:55:00.686Z,80.70
2023-03-03T04:57:29.916Z,80.90
2023-03-03T04:59:57.732Z,80.80
2023-03-03T05:02:25.691Z,81.60
2023-03-03T05:04:53.909Z,80.90
2023-03-03T05:07:21.998Z,81.20
2023-03-03T05:09:49.832Z,81.30
2023-03-03T05:12:18.067Z,81.40
2023-03-03T05:14:47.262Z,81.70
2023-03-03T05:17:15.212Z,82.60
2023-03-03T05:19:43.118Z,81.90
2023-03-03T05:22:11.027Z,82.30
2023-03-03T05:24:38.854Z,82.70
2023-03-03T05:27:06.667Z,83.40
2023-03-03T05:29:34.501Z,83.40
2023-03-03T05:32:03.918Z,83.50
2023-03-03T05:34:31.765Z,82.30
2023-03-03T05:37:00.422Z,81.80
2023-03-03T05:39:28.271Z,80.20
2023-03-03T05:41:56.900Z,79.40
2023-03-03T05:44:24.815Z,81.00
2023-03-03T05:46:52.706Z,82.60
2023-03-03T05:49:21.894Z,83.00
2023-03-03T05:51:49.775Z,82.30
2023-03-03T05:54:17.609Z,83.10
2023-03-03T05:56:45.560Z,80.90
2023-03-03T05:59:13.442Z,80.20
2023-03-03T06:01:41.328Z,80.20
2023-03-03T06:04:09.848Z,80.90
2023-03-03T06:06:39.056Z,81.60
2023-03-03T06:09:06.987Z,81.90
2023-03-03T06:11:34.863Z,80.10
2023-03-03T06:14:02.753Z,81.30
2023-03-03T06:16:30.611Z,82.30
2023-03-03T06:18:58.482Z,82.50
2023-03-03T06:21:26.471Z,82.60
2023-03-03T06:23:55.751Z,81.80
2023-03-03T06:26:23.808Z,82.50
2023-03-03T06:28:54.090Z,81.40
2023-03-03T06:31:22.179Z,82.70
2023-03-03T06:33:51.582Z,82.30
2023-03-03T06:36:20.000Z,81.40
2023-03-03T06:38:47.990Z,80.90
2023-03-03T06:41:17.177Z,79.70
2023-03-03T06:43:45.652Z,79.20
2023-03-03T06:46:13.702Z,76.40
2023-03-03T06:48:42.025Z,77.10
2023-03-03T06:51:23.240Z,76.10
2023-03-03T06:53:53.774Z,75.70
2023-03-03T06:56:24.925Z,74.10
2023-03-03T06:58:56.117Z,72.60
2023-03-03T07:01:24.322Z,70.60
2023-03-03T07:03:52.320Z,71.70
2023-03-03T07:06:25.388Z,69.40
2023-03-03T07:08:53.858Z,69.40
2023-03-03T07:11:24.834Z,68.40
2023-03-03T07:13:54.749Z,68.00
2023-03-03T07:16:27.070Z,68.30
2023-03-03T07:18:58.376Z,65.40
2023-03-03T07:21:32.363Z,64.90
2023-03-03T07:24:02.320Z,64.70
2023-03-03T07:26:33.932Z,62.40
2023-03-03T07:29:04.362Z,62.40
2023-03-03T07:31:36.682Z,60.60
2023-03-03T07:34:18.018Z,60.70
2023-03-03T07:36:46.066Z,58.30
2023-03-03T07:39:40.839Z,57.90
2023-03-03T07:42:22.320Z,54.50
2023-03-03T07:44:53.237Z,54.40
2023-03-03T07:47:25.289Z,54.00
2023-03-03T07:49:54.822Z,52.90
2023-03-03T07:52:32.698Z,53.50
2023-03-03T07:55:03.655Z,52.90
2023-03-03T07:57:37.787Z,51.20
2023-03-03T08:00:51.479Z,50.70
2023-03-03T08:03:21.115Z,51.50
2023-03-03T08:05:52.239Z,50.80
2023-03-03T08:08:30.578Z,51.40
2023-03-03T08:10:59.522Z,49.50
2023-03-03T08:13:38.255Z,49.60
2023-03-03T08:16:28.498Z,48.00
2023-03-03T08:18:59.331Z,46.40
2023-03-03T08:21:28.353Z,46.40
2023-03-03T08:23:56.286Z,43.70
2023-03-03T08:26:25.439Z,44.90
2023-03-03T08:28:55.795Z,43.80
2023-03-03T08:31:39.942Z,43.20
2023-03-03T08:34:08.591Z,41.30
2023-03-03T08:36:36.560Z,42.40
2023-03-03T08:39:05.664Z,39.60
2023-03-03T08:41:33.652Z,41.50
2023-03-03T08:44:02.931Z,40.30
2023-03-03T08:46:30.832Z,39.90
2023-03-03T08:48:58.681Z,38.90
2023-03-03T08:51:26.729Z,38.10
2023-03-03T08:53:54.652Z,37.30
2023-03-03T08:56:22.723Z,36.90
2023-03-03T08:59:01.885Z,36.80
2023-03-03T09:01:31.903Z,36.50
2023-03-03T09:04:00.091Z,36.70
2023-03-03T09:06:28.171Z,36.60
2023-03-03T09:08:56.131Z,35.60
2023-03-03T09:11:27.487Z,34.50
2023-03-03T09:14:03.879Z,34.00
2023-03-03T09:16:38.362Z,33.80
2023-03-03T09:19:19.649Z,33.40
2023-03-03T09:21:47.716Z,34.30
2023-03-03T09:24:25.333Z,32.90
2023-03-03T09:26:54.923Z,33.00
2023-03-03T09:29:28.044Z,33.50
2023-03-03T09:31:59.106Z,33.40
2023-03-03T09:34:38.243Z,33.00
2023-03-03T09:37:19.859Z,31.80
2023-03-03T09:39:51.369Z,31.60
2023-03-03T09:42:52.405Z,31.20
2023-03-03T09:45:52.269Z,33.00
2023-03-03T09:48:41.086Z,33.40
2023-03-03T09:51:23.866Z,33.20
2023-03-03T09:54:16.144Z,32.60
2023-03-03T09:56:48.032Z,30.90
2023-03-03T09:59:33.479Z,32.80
2023-03-03T10:02:23.396Z,30.80
2023-03-03T10:05:15.605Z,31.70
2023-03-03T10:07:53.941Z,29.60
2023-03-03T10:10:46.832Z,34.70
2023-03-03T10:13:27.364Z,34.20
2023-03-03T10:16:12.271Z,32.30
2023-03-03T10:18:49.683Z,32.50
2023-03-03T10:21:26.414Z,31.60
2023-03-03T10:23:59.153Z,30.30
2023-03-03T10:27:05.302Z,29.70
2023-03-03T10:29:40.406Z,32.00
2023-03-03T10:32:36.760Z,30.00
2023-03-03T10:35:20.925Z,30.40
2023-03-03T10:38:07.006Z,29.90
2023-03-03T10:40:40.138Z,29.30
2023-03-03T10:43:32.079Z,30.80
2023-03-03T10:46:21.718Z,30.60
2023-03-03T10:49:11.134Z,31.70
2023-03-03T10:51:52.035Z,30.50
2023-03-03T10:54:31.432Z,30.40
2023-03-03T10:57:03.527Z,29.70
2023-03-03T10:59:45.134Z,31.00
2023-03-03T11:02:19.714Z,29.90
2023-03-03T11:05:16.375Z,30.00
2023-03-03T11:07:47.349Z,29.40
2023-03-03T11:10:28.828Z,28.90
2023-03-03T11:13:10.905Z,29.10
2023-03-03T11:15:51.693Z,27.20
2023-03-03T11:18:34.561Z,27.00
2023-03-03T11:21:14.366Z,27.80
2023-03-03T11:23:59.804Z,28.90
2023-03-03T11:27:00.019Z,29.80
2023-03-03T11:29:45.450Z,29.50
2023-03-03T11:32:23.463Z,28.40
2023-03-03T11:35:05.355Z,28.20
2023-03-03T11:37:43.062Z,30.10
2023-03-03T11:40:18.022Z,27.30
2023-03-03T11:43:01.344Z,30.80
2023-03-03T11:45:35.379Z,28.40
2023-03-03T11:48:09.510Z,28.80
2023-03-03T11:50:44.474Z,28.10
2023-03-03T11:53:26.063Z,28.90
2023-03-03T11:55:58.819Z,28.30
2023-03-03T11:58:32.779Z,27.90
2023-03-03T12:01:11.438Z,27.70
2023-03-03T12:03:44.708Z,26.60
2023-03-03T12:06:22.872Z,27.40
2023-03-03T12:09:12.868Z,27.00
2023-03-03T12:11:49.312Z,26.00
2023-03-03T12:14:34.200Z,26.80
2023-03-03T12:17:05.795Z,26.20
2023-03-03T12:19:39.209Z,25.20
2023-03-03T12:22:17.857Z,26.30
2023-03-03T12:25:07.606Z,24.20
2023-03-03T12:27:44.128Z,25.40
2023-03-03T12:30:25.321Z,26.80
2023-03-03T12:33:05.608Z,26.80
2023-03-03T12:35:41.048Z,24.60
2023-03-03T12:38:17.377Z,26.90
2023-03-03T12:40:53.704Z,26.10
2023-03-03T12:43:37.323Z,25.50
2023-03-03T12:46:15.696Z,27.80
2023-03-03T12:48:45.597Z,25.30
2023-03-03T12:51:24.032Z,27.10
2023-03-03T12:54:23.104Z,24.70
2023-03-03T12:56:55.691Z,24.40
2023-03-03T12:59:32.516Z,25.60
2023-03-03T13:02:21.317Z,25.00
2023-03-03T13:04:57.597Z,25.50
2023-03-03T13:07:33.161Z,25.60
2023-03-03T13:10:10.274Z,26.00
2023-03-03T13:12:44.511Z,25.50
2023-03-03T13:15:18.249Z,25.90
2023-03-03T13:17:59.890Z,25.30
2023-03-03T13:20:39.093Z,25.80
2023-03-03T13:23:13.506Z,27.00
2023-03-03T13:25:50.447Z,25.80
2023-03-03T13:28:27.692Z,25.30
2023-03-03T13:31:02.337Z,25.90
2023-03-03T13:33:35.199Z,24.40
2023-03-03T13:36:06.033Z,24.60
2023-03-03T13:38:37.716Z,26.00
2023-03-03T13:41:11.971Z,27.10
2023-03-03T13:43:47.472Z,27.00
2023-03-03T13:46:24.060Z,25.10
2023-03-03T13:49:33.943Z,25.30
2023-03-03T13:52:06.643Z,26.60
2023-03-03T13:54:52.475Z,26.70
2023-03-03T13:57:31.040Z,26.00
2023-03-03T14:00:07.912Z,25.70
2023-03-03T14:02:48.520Z,26.70
2023-03-03T14:05:24.653Z,26.10
2023-03-03T14:07:58.428Z,26.00
2023-03-03T14:10:32.405Z,26.00
2023-03-03T14:13:06.312Z,25.60
2023-03-03T14:15:37.740Z,26.60
2023-03-03T14:18:25.763Z,26.10
2023-03-03T14:20:57.990Z,25.90
2023-03-03T14:23:33.370Z,26.50
2023-03-03T14:26:09.335Z,27.20
2023-03-03T14:28:41.759Z,28.90
2023-03-03T14:31:19.551Z,27.70
2023-03-03T14:33:58.741Z,27.50
2023-03-03T14:36:33.230Z,26.90
2023-03-03T14:39:01.928Z,29.30
2023-03-03T14:41:39.832Z,29.20
2023-03-03T14:44:27.474Z,29.20
2023-03-03T14:47:23.727Z,28.10
2023-03-03T14:49:52.264Z,28.50
2023-03-03T14:52:25.289Z,30.00
2023-03-03T14:54:55.096Z,29.80
2023-03-03T14:57:41.658Z,28.60
2023-03-03T15:00:29.246Z,28.70
2023-03-03T15:03:04.717Z,31.10
2023-03-03T15:05:33.957Z,30.70
2023-03-03T15:08:12.349Z,29.20
2023-03-03T15:10:41.954Z,30.00
2023-03-03T15:13:32.228Z,30.20
2023-03-03T15:16:10.424Z,32.30
2023-03-03T15:19:17.126Z,32.40
2023-03-03T15:21:56.432Z,31.60
2023-03-03T15:24:32.618Z,32.20
2023-03-03T15:27:05.475Z,30.70
2023-03-03T15:29:38.927Z,32.10
2023-03-03T15:32:16.336Z,31.00
2023-03-03T15:34:48.912Z,33.00
2023-03-03T15:37:31.508Z,33.90
2023-03-03T15:40:10.462Z,33.60
2023-03-03T15:42:46.762Z,32.90
2023-03-03T15:45:26.188Z,32.80
2023-03-03T15:48:12.698Z,33.10
2023-03-03T15:50:52.875Z,33.30
2023-03-03T15:53:32.657Z,34.10
2023-03-03T15:56:21.637Z,33.50
2023-03-03T15:59:30.968Z,35.00
2023-03-03T16:02:11.770Z,35.40
2023-03-03T16:04:45.898Z,35.20
2023-03-03T16:07:24.774Z,37.70
2023-03-03T16:10:01.268Z,36.60
2023-03-03T16:12:42.132Z,36.90
2023-03-03T16:15:22.547Z,37.30
2023-03-03T16:18:00.041Z,37.50
2023-03-03T16:20:34.463Z,37.30
2023-03-03T16:23:18.468Z,37.30
2023-03-03T16:26:01.895Z,38.10
2023-03-03T16:28:43.335Z,39.10
2023-03-03T16:31:14.616Z,38.20
2023-03-03T16:33:50.542Z,38.10
2023-03-03T16:36:29.295Z,39.30
2023-03-03T16:39:04.335Z,39.60
2023-03-03T16:41:43.166Z,39.00
2023-03-03T16:44:25.916Z,38.70
2023-03-03T16:46:57.511Z,38.80
2023-03-03T16:49:31.608Z,40.30
2023-03-03T16:52:06.599Z,39.50
2023-03-03T16:54:39.486Z,40.20
2023-03-03T16:57:17.335Z,40.40
2023-03-03T17:00:01.615Z,39.80
2023-03-03T17:02:46.505Z,40.10
2023-03-03T17:05:25.744Z,39.90
2023-03-03T17:08:06.688Z,39.30
2023-03-03T17:10:41.361Z,39.70
2023-03-03T17:13:25.286Z,38.60
2023-03-03T17:16:05.158Z,40.50
2023-03-03T17:18:43.844Z,41.00
2023-03-03T17:21:22.793Z,42.40
2023-03-03T17:24:03.326Z,43.70
2023-03-03T17:26:41.296Z,44.10
2023-03-03T17:29:27.801Z,44.50
2023-03-03T17:32:03.450Z,45.40
2023-03-03T17:34:43.746Z,45.40
2023-03-03T17:37:22.925Z,45.60
2023-03-03T17:40:12.487Z,44.60
2023-03-03T17:42:48.933Z,45.60
2023-03-03T17:45:18.732Z,48.10
2023-03-03T17:48:08.124Z,47.60
2023-03-03T17:50:58.922Z,48.40
2023-03-03T17:53:53.424Z,48.90
2023-03-03T17:56:25.007Z,48.90
2023-03-03T17:59:17.640Z,48.60
2023-03-03T18:02:09.180Z,48.20
2023-03-03T18:04:57.232Z,48.10
2023-03-03T18:07:46.853Z,48.00
2023-03-03T18:10:41.390Z,47.90
2023-03-03T18:13:35.037Z,49.10
2023-03-03T18:16:13.365Z,49.90
2023-03-03T18:18:56.913Z,51.10
2023-03-03T18:21:29.909Z,52.60
2023-03-03T18:24:26.790Z,54.10
2023-03-03T18:26:56.448Z,54.20
2023-03-03T18:29:28.799Z,54.60
2023-03-03T18:32:17.209Z,55.20
2023-03-03T18:34:45.390Z,55.50
2023-03-03T18:37:39.256Z,55.50
2023-03-03T18:40:28.867Z,54.80
2023-03-03T18:42:57.008Z,55.40
2023-03-03T18:45:51.022Z,56.00
2023-03-03T18:48:20.111Z,57.20
2023-03-03T18:50:49.708Z,58.50
2023-03-03T18:53:25.615Z,58.10
2023-03-03T18:55:55.451Z,56.80
2023-03-03T18:58:42.002Z,58.20
2023-03-03T19:01:42.934Z,58.40
2023-03-03T19:04:22.591Z,58.70
2023-03-03T19:07:16.007Z,60.00
2023-03-03T19:09:58.053Z,60.00
2023-03-03T19:12:54.363Z,60.30
2023-03-03T19:15:49.857Z,60.00
2023-03-03T19:18:23.810Z,59.70
2023-03-03T19:20:57.092Z,59.10
2023-03-03T19:23:34.850Z,58.20
2023-03-03T19:26:32.886Z,58.20
2023-03-03T19:29:12.194Z,57.10
2023-03-03T19:31:49.270Z,58.60
2023-03-03T19:34:24.093Z,59.30
2023-03-03T19:37:03.776Z,61.90
2023-03-03T19:39:54.013Z,64.20
2023-03-03T19:42:34.838Z,65.10
2023-03-03T19:45:20.136Z,65.10
2023-03-03T19:47:53.114Z,65.40
2023-03-03T19:50:34.491Z,65.40
2023-03-03T19:53:14.100Z,65.40
2023-03-03T19:55:52.400Z,65.30
2023-03-03T19:58:32.691Z,65.20
2023-03-03T20:01:08.794Z,65.20
2023-03-03T20:03:59.432Z,65.00
2023-03-03T20:06:37.993Z,65.40
2023-03-03T20:09:17.572Z,65.30
2023-03-03T20:11:59.213Z,64.90
2023-03-03T20:14:45.901Z,64.90
2023-03-03T20:17:29.522Z,65.30
2023-03-03T20:20:04.475Z,64.60
2023-03-03T20:22:41.481Z,63.90
2023-03-03T20:25:24.622Z,63.30
2023-03-03T20:28:02.766Z,63.60
2023-03-03T20:30:52.084Z,63.20
2023-03-03T20:33:33.170Z,62.40
2023-03-03T20:36:11.324Z,63.90
2023-03-03T20:38:50.640Z,64.00
2023-03-03T20:41:29.125Z,65.90
2023-03-03T20:44:10.051Z,67.50
2023-03-03T20:46:53.007Z,68.50
2023-03-03T20:49:34.176Z,68.50
2023-03-03T20:52:08.382Z,68.80
2023-03-03T20:54:43.959Z,68.10
2023-03-03T20:57:19.901Z,68.30
2023-03-03T20:59:56.046Z,68.20
2023-03-03T21:02:31.666Z,68.60
2023-03-03T21:05:13.482Z,68.60
2023-03-03T21:07:52.723Z,68.50
2023-03-03T21:10:24.263Z,66.80
2023-03-03T21:12:53.638Z,67.00
2023-03-03T21:15:27.700Z,67.80
2023-03-03T21:17:58.195Z,68.10
2023-03-03T21:20:29.965Z,67.70
2023-03-03T21:22:58.992Z,67.30
2023-03-03T21:25:47.830Z,67.60
2023-03-03T21:28:21.995Z,69.30
2023-03-03T21:31:04.715Z,68.50
2023-03-03T21:33:52.155Z,69.80
2023-03-03T21:36:23.236Z,70.30
2023-03-03T21:38:52.455Z,70.40
2023-03-03T21:41:21.223Z,70.20
2023-03-03T21:43:51.593Z,70.40
2023-03-03T21:46:20.609Z,70.40
2023-03-03T21:48:50.050Z,70.80
2023-03-03T21:51:20.306Z,72.00
2023-03-03T21:53:48.234Z,72.30
2023-03-03T21:56:16.093Z,72.00
2023-03-03T21:58:44.164Z,70.90
2023-03-03T22:01:12.162Z,70.80
2023-03-03T22:03:40.621Z,70.90
2023-03-03T22:06:09.994Z,71.60
2023-03-03T22:08:37.875Z,70.20
2023-03-03T22:11:05.985Z,71.30
2023-03-03T22:13:33.817Z,71.50
2023-03-03T22:16:01.695Z,71.60
2023-03-03T22:18:29.562Z,70.90
2023-03-03T22:20:57.460Z,71.70
2023-03-03T22:23:26.827Z,72.80
2023-03-03T22:25:54.705Z,73.40
2023-03-03T22:28:22.560Z,72.90
2023-03-03T22:30:51.178Z,73.70
2023-03-03T22:33:19.072Z,74.10
2023-03-03T22:35:46.975Z,73.70
2023-03-03T22:38:15.139Z,73.50
2023-03-03T22:40:44.848Z,73.70
2023-03-03T22:43:14.557Z,74.40
2023-03-03T22:45:42.421Z,74.30
2023-03-03T22:48:10.288Z,74.30
2023-03-03T22:50:39.584Z,74.70
2023-03-03T22:53:07.607Z,74.40
2023-03-03T22:55:37.086Z,73.20
2023-03-03T22:58:09.220Z,72.70
2023-03-03T23:00:39.071Z,73.30
2023-03-03T23:03:07.113Z,74.40
2023-03-03T23:05:35.797Z,74.40
2023-03-03T23:08:04.296Z,74.30
2023-03-03T23:10:32.216Z,74.10
2023-03-03T23:13:00.099Z,73.20
2023-03-03T23:15:29.459Z,74.00
2023-03-03T23:17:57.364Z,74.90
2023-03-03T23:20:27.291Z,74.80
2023-03-03T23:22:55.219Z,74.00
2023-03-03T23:25:24.030Z,74.40
2023-03-03T23:27:52.588Z,75.00
2023-03-03T23:30:22.518Z,75.70
2023-03-03T23:32:52.171Z,76.00
2023-03-03T23:35:21.151Z,75.40
2023-03-03T23:37:49.199Z,75.90
2023-03-03T23:40:18.248Z,76.00
2023-03-03T23:42:46.233Z,76.10
2023-03-03T23:45:14.726Z,76.30
2023-03-03T23:47:43.416Z,77.10
2023-03-03T23:50:14.496Z,77.10
2023-03-03T23:52:42.417Z,76.40
2023-03-03T23:55:11.188Z,76.40
2023-03-03T23:57:39.078Z,76.50
